sensor_id;sensor_type;location;lat;lon;timestamp;P1;durP1;ratioP1;P2;durP2;ratioP2
76807;SDS011;65758;45.458;11.062;2023-02-01T00:00:58;28.20;;;17.80;;
76807;SDS011;65758;45.458;11.062;2023-02-01T00:03:25;32.90;;;19.50;;
76807;SDS011;65758;45.458;11.062;2023-02-01T00:05:56;34.10;;;18.50;;
76807;SDS011;65758;45.458;11.062;2023-02-01T00:08:24;32.10;;;17.50;;
76807;SDS011;65758;45.458;11.062;2023-02-01T00:13:37;28.00;;;15.50;;
76807;SDS011;65758;45.458;11.062;2023-02-01T00:16:10;30.80;;;17.40;;
76807;SDS011;65758;45.458;11.062;2023-02-01T00:18:38;36.20;;;19.90;;
76807;SDS011;65758;45.458;11.062;2023-02-01T00:21:05;34.10;;;18.80;;
76807;SDS011;65758;45.458;11.062;2023-02-01T00:26:05;32.70;;;18.20;;
76807;SDS011;65758;45.458;11.062;2023-02-01T00:28:33;31.00;;;18.20;;
76807;SDS011;65758;45.458;11.062;2023-02-01T00:31:01;36.50;;;20.00;;
76807;SDS011;65758;45.458;11.062;2023-02-01T00:33:29;37.50;;;20.10;;
76807;SDS011;65758;45.458;11.062;2023-02-01T00:35:57;37.50;;;19.80;;
76807;SDS011;65758;45.458;11.062;2023-02-01T00:38:30;37.30;;;20.20;;
76807;SDS011;65758;45.458;11.062;2023-02-01T00:43:54;27.90;;;17.60;;
76807;SDS011;65758;45.458;11.062;2023-02-01T00:48:48;33.10;;;18.20;;
76807;SDS011;65758;45.458;11.062;2023-02-01T00:51:16;35.80;;;19.80;;
76807;SDS011;65758;45.458;11.062;2023-02-01T00:53:45;31.50;;;18.50;;
76807;SDS011;65758;45.458;11.062;2023-02-01T00:56:12;34.60;;;20.00;;
76807;SDS011;65758;45.458;11.062;2023-02-01T00:58:39;34.70;;;19.30;;
76807;SDS011;65758;45.458;11.062;2023-02-01T01:01:07;36.70;;;18.20;;
76807;SDS011;65758;45.458;11.062;2023-02-01T01:07:54;42.80;;;21.70;;
76807;SDS011;65758;45.458;11.062;2023-02-01T01:10:21;36.80;;;21.00;;
76807;SDS011;65758;45.458;11.062;2023-02-01T01:12:48;35.30;;;19.70;;
76807;SDS011;65758;45.458;11.062;2023-02-01T01:17:42;33.10;;;19.00;;
76807;SDS011;65758;45.458;11.062;2023-02-01T01:20:09;35.20;;;20.70;;
76807;SDS011;65758;45.458;11.062;2023-02-01T01:22:36;37.00;;;20.50;;
76807;SDS011;65758;45.458;11.062;2023-02-01T01:31:43;37.20;;;19.20;;
76807;SDS011;65758;45.458;11.062;2023-02-01T01:34:10;38.00;;;19.10;;
76807;SDS011;65758;45.458;11.062;2023-02-01T01:39:03;29.90;;;17.40;;
76807;SDS011;65758;45.458;11.062;2023-02-01T01:41:31;30.70;;;17.20;;
76807;SDS011;65758;45.458;11.062;2023-02-01T01:44:06;33.90;;;18.80;;
76807;SDS011;65758;45.458;11.062;2023-02-01T01:47:11;33.70;;;18.00;;
76807;SDS011;65758;45.458;11.062;2023-02-01T01:49:40;32.80;;;17.60;;
76807;SDS011;65758;45.458;11.062;2023-02-01T01:52:07;34.10;;;18.90;;
76807;SDS011;65758;45.458;11.062;2023-02-01T01:54:38;34.90;;;18.90;;
76807;SDS011;65758;45.458;11.062;2023-02-01T01:57:24;34.80;;;20.10;;
76807;SDS011;65758;45.458;11.062;2023-02-01T02:00:03;34.90;;;19.50;;
76807;SDS011;65758;45.458;11.062;2023-02-01T02:02:53;35.90;;;19.20;;
76807;SDS011;65758;45.458;11.062;2023-02-01T02:05:25;33.90;;;20.40;;
76807;SDS011;65758;45.458;11.062;2023-02-01T02:07:53;32.10;;;18.60;;
76807;SDS011;65758;45.458;11.062;2023-02-01T02:10:23;33.50;;;19.00;;
76807;SDS011;65758;45.458;11.062;2023-02-01T02:13:10;30.50;;;18.00;;
76807;SDS011;65758;45.458;11.062;2023-02-01T02:15:38;38.10;;;20.20;;
76807;SDS011;65758;45.458;11.062;2023-02-01T02:18:25;39.30;;;20.70;;
76807;SDS011;65758;45.458;11.062;2023-02-01T02:21:08;35.80;;;20.40;;
76807;SDS011;65758;45.458;11.062;2023-02-01T02:29:04;41.30;;;22.90;;
76807;SDS011;65758;45.458;11.062;2023-02-01T02:34:55;41.80;;;22.80;;
76807;SDS011;65758;45.458;11.062;2023-02-01T02:37:35;38.60;;;22.00;;
76807;SDS011;65758;45.458;11.062;2023-02-01T02:40:14;40.10;;;23.80;;
76807;SDS011;65758;45.458;11.062;2023-02-01T02:46:22;38.60;;;21.00;;
76807;SDS011;65758;45.458;11.062;2023-02-01T02:49:21;42.60;;;23.10;;
76807;SDS011;65758;45.458;11.062;2023-02-01T02:52:09;41.00;;;21.30;;
76807;SDS011;65758;45.458;11.062;2023-02-01T02:55:00;30.50;;;18.60;;
76807;SDS011;65758;45.458;11.062;2023-02-01T02:57:34;36.60;;;20.90;;
76807;SDS011;65758;45.458;11.062;2023-02-01T03:00:24;37.60;;;20.90;;
76807;SDS011;65758;45.458;11.062;2023-02-01T03:03:13;40.30;;;21.50;;
76807;SDS011;65758;45.458;11.062;2023-02-01T03:05:59;42.90;;;23.10;;
76807;SDS011;65758;45.458;11.062;2023-02-01T03:08:27;35.00;;;20.20;;
76807;SDS011;65758;45.458;11.062;2023-02-01T03:11:10;40.10;;;23.10;;
76807;SDS011;65758;45.458;11.062;2023-02-01T03:16:23;39.70;;;23.40;;
76807;SDS011;65758;45.458;11.062;2023-02-01T03:21:31;39.70;;;21.80;;
76807;SDS011;65758;45.458;11.062;2023-02-01T03:24:05;42.10;;;23.80;;
76807;SDS011;65758;45.458;11.062;2023-02-01T03:26:54;48.00;;;26.70;;
76807;SDS011;65758;45.458;11.062;2023-02-01T03:29:26;50.90;;;28.10;;
76807;SDS011;65758;45.458;11.062;2023-02-01T03:31:59;49.00;;;27.50;;
76807;SDS011;65758;45.458;11.062;2023-02-01T03:34:26;53.20;;;28.30;;
76807;SDS011;65758;45.458;11.062;2023-02-01T03:37:00;46.10;;;27.60;;
76807;SDS011;65758;45.458;11.062;2023-02-01T03:39:41;48.50;;;28.10;;
76807;SDS011;65758;45.458;11.062;2023-02-01T03:42:37;47.50;;;25.90;;
76807;SDS011;65758;45.458;11.062;2023-02-01T03:45:10;48.30;;;27.80;;
76807;SDS011;65758;45.458;11.062;2023-02-01T03:47:47;48.50;;;27.20;;
76807;SDS011;65758;45.458;11.062;2023-02-01T03:50:17;49.10;;;28.00;;
76807;SDS011;65758;45.458;11.062;2023-02-01T03:52:51;45.20;;;27.00;;
76807;SDS011;65758;45.458;11.062;2023-02-01T03:55:22;49.60;;;27.80;;
76807;SDS011;65758;45.458;11.062;2023-02-01T03:58:00;54.80;;;27.50;;
76807;SDS011;65758;45.458;11.062;2023-02-01T04:00:33;49.90;;;26.80;;
76807;SDS011;65758;45.458;11.062;2023-02-01T04:03:00;43.20;;;24.70;;
76807;SDS011;65758;45.458;11.062;2023-02-01T04:05:28;44.60;;;24.10;;
76807;SDS011;65758;45.458;11.062;2023-02-01T04:08:00;43.40;;;23.40;;
76807;SDS011;65758;45.458;11.062;2023-02-01T04:12:53;42.10;;;22.50;;
76807;SDS011;65758;45.458;11.062;2023-02-01T04:15:20;44.60;;;24.50;;
76807;SDS011;65758;45.458;11.062;2023-02-01T04:17:47;45.30;;;26.50;;
76807;SDS011;65758;45.458;11.062;2023-02-01T04:20:14;51.60;;;27.30;;
76807;SDS011;65758;45.458;11.062;2023-02-01T04:25:07;51.20;;;25.90;;
76807;SDS011;65758;45.458;11.062;2023-02-01T04:27:34;48.50;;;26.20;;
76807;SDS011;65758;45.458;11.062;2023-02-01T04:30:02;52.00;;;28.40;;
76807;SDS011;65758;45.458;11.062;2023-02-01T04:32:36;47.70;;;24.70;;
76807;SDS011;65758;45.458;11.062;2023-02-01T04:35:04;48.20;;;26.00;;
76807;SDS011;65758;45.458;11.062;2023-02-01T04:37:31;48.90;;;26.90;;
76807;SDS011;65758;45.458;11.062;2023-02-01T04:42:25;49.00;;;25.60;;
76807;SDS011;65758;45.458;11.062;2023-02-01T04:47:18;42.60;;;22.20;;
76807;SDS011;65758;45.458;11.062;2023-02-01T04:49:45;39.90;;;22.70;;
76807;SDS011;65758;45.458;11.062;2023-02-01T04:52:11;43.70;;;23.70;;
76807;SDS011;65758;45.458;11.062;2023-02-01T04:54:38;46.50;;;22.90;;
76807;SDS011;65758;45.458;11.062;2023-02-01T05:01:18;44.00;;;23.90;;
76807;SDS011;65758;45.458;11.062;2023-02-01T05:06:12;41.10;;;20.60;;
76807;SDS011;65758;45.458;11.062;2023-02-01T05:12:59;39.00;;;21.50;;
76807;SDS011;65758;45.458;11.062;2023-02-01T05:15:44;43.50;;;21.80;;
76807;SDS011;65758;45.458;11.062;2023-02-01T05:18:12;43.00;;;22.40;;
76807;SDS011;65758;45.458;11.062;2023-02-01T05:20:39;44.30;;;24.40;;
76807;SDS011;65758;45.458;11.062;2023-02-01T05:23:06;39.90;;;21.80;;
76807;SDS011;65758;45.458;11.062;2023-02-01T05:25:32;38.70;;;22.50;;
76807;SDS011;65758;45.458;11.062;2023-02-01T05:27:59;44.40;;;23.90;;
76807;SDS011;65758;45.458;11.062;2023-02-01T05:30:26;46.00;;;25.00;;
76807;SDS011;65758;45.458;11.062;2023-02-01T05:32:52;48.40;;;27.10;;
76807;SDS011;65758;45.458;11.062;2023-02-01T05:35:19;34.60;;;20.70;;
76807;SDS011;65758;45.458;11.062;2023-02-01T05:37:46;34.00;;;20.00;;
76807;SDS011;65758;45.458;11.062;2023-02-01T05:40:13;43.70;;;24.20;;
76807;SDS011;65758;45.458;11.062;2023-02-01T05:42:39;47.60;;;26.70;;
76807;SDS011;65758;45.458;11.062;2023-02-01T05:45:06;45.50;;;26.80;;
76807;SDS011;65758;45.458;11.062;2023-02-01T05:47:34;52.20;;;25.50;;
76807;SDS011;65758;45.458;11.062;2023-02-01T05:52:27;45.00;;;23.80;;
76807;SDS011;65758;45.458;11.062;2023-02-01T05:54:54;44.40;;;25.10;;
76807;SDS011;65758;45.458;11.062;2023-02-01T05:57:20;49.20;;;25.80;;
76807;SDS011;65758;45.458;11.062;2023-02-01T06:02:15;43.60;;;25.00;;
76807;SDS011;65758;45.458;11.062;2023-02-01T06:04:42;45.50;;;24.80;;
76807;SDS011;65758;45.458;11.062;2023-02-01T06:07:09;44.90;;;24.30;;
76807;SDS011;65758;45.458;11.062;2023-02-01T06:09:37;45.20;;;25.70;;
76807;SDS011;65758;45.458;11.062;2023-02-01T06:14:30;41.10;;;22.00;;
76807;SDS011;65758;45.458;11.062;2023-02-01T06:16:57;45.60;;;25.70;;
76807;SDS011;65758;45.458;11.062;2023-02-01T06:19:25;53.70;;;28.80;;
76807;SDS011;65758;45.458;11.062;2023-02-01T06:21:51;46.90;;;25.90;;
76807;SDS011;65758;45.458;11.062;2023-02-01T06:24:18;49.60;;;25.80;;
76807;SDS011;65758;45.458;11.062;2023-02-01T06:26:46;44.70;;;24.30;;
76807;SDS011;65758;45.458;11.062;2023-02-01T06:31:39;56.20;;;30.30;;
76807;SDS011;65758;45.458;11.062;2023-02-01T06:34:06;59.00;;;32.30;;
76807;SDS011;65758;45.458;11.062;2023-02-01T06:40:54;59.20;;;31.80;;
76807;SDS011;65758;45.458;11.062;2023-02-01T06:43:23;57.50;;;30.20;;
76807;SDS011;65758;45.458;11.062;2023-02-01T06:45:52;57.40;;;32.00;;
76807;SDS011;65758;45.458;11.062;2023-02-01T06:48:19;57.30;;;31.00;;
76807;SDS011;65758;45.458;11.062;2023-02-01T06:50:46;56.70;;;30.40;;
76807;SDS011;65758;45.458;11.062;2023-02-01T06:53:12;53.80;;;29.40;;
76807;SDS011;65758;45.458;11.062;2023-02-01T06:55:39;49.70;;;27.40;;
76807;SDS011;65758;45.458;11.062;2023-02-01T06:58:06;48.60;;;28.30;;
76807;SDS011;65758;45.458;11.062;2023-02-01T07:00:32;52.10;;;29.30;;
76807;SDS011;65758;45.458;11.062;2023-02-01T07:02:59;48.50;;;28.00;;
76807;SDS011;65758;45.458;11.062;2023-02-01T07:05:27;48.20;;;27.60;;
76807;SDS011;65758;45.458;11.062;2023-02-01T07:07:54;58.40;;;31.60;;
76807;SDS011;65758;45.458;11.062;2023-02-01T07:12:48;53.20;;;29.00;;
76807;SDS011;65758;45.458;11.062;2023-02-01T07:15:14;56.80;;;29.20;;
76807;SDS011;65758;45.458;11.062;2023-02-01T07:17:41;51.70;;;30.10;;
76807;SDS011;65758;45.458;11.062;2023-02-01T07:20:08;52.00;;;28.80;;
76807;SDS011;65758;45.458;11.062;2023-02-01T07:22:35;56.80;;;30.60;;
76807;SDS011;65758;45.458;11.062;2023-02-01T07:27:33;53.00;;;29.10;;
76807;SDS011;65758;45.458;11.062;2023-02-01T07:30:03;52.50;;;30.70;;
76807;SDS011;65758;45.458;11.062;2023-02-01T07:32:31;51.40;;;27.60;;
76807;SDS011;65758;45.458;11.062;2023-02-01T07:34:58;52.40;;;29.90;;
76807;SDS011;65758;45.458;11.062;2023-02-01T07:37:24;52.30;;;27.60;;
76807;SDS011;65758;45.458;11.062;2023-02-01T07:39:51;48.20;;;28.30;;
76807;SDS011;65758;45.458;11.062;2023-02-01T07:42:18;42.90;;;23.70;;
76807;SDS011;65758;45.458;11.062;2023-02-01T07:44:45;45.90;;;26.90;;
76807;SDS011;65758;45.458;11.062;2023-02-01T07:47:12;42.40;;;26.20;;
76807;SDS011;65758;45.458;11.062;2023-02-01T07:49:39;54.70;;;28.40;;
76807;SDS011;65758;45.458;11.062;2023-02-01T07:52:05;50.70;;;29.60;;
76807;SDS011;65758;45.458;11.062;2023-02-01T07:54:32;50.60;;;28.90;;
76807;SDS011;65758;45.458;11.062;2023-02-01T08:01:20;50.20;;;26.30;;
76807;SDS011;65758;45.458;11.062;2023-02-01T08:08:07;51.10;;;29.50;;
76807;SDS011;65758;45.458;11.062;2023-02-01T08:10:34;65.60;;;36.60;;
76807;SDS011;65758;45.458;11.062;2023-02-01T08:13:02;59.00;;;32.90;;
76807;SDS011;65758;45.458;11.062;2023-02-01T08:15:29;58.60;;;31.80;;
76807;SDS011;65758;45.458;11.062;2023-02-01T08:17:57;58.70;;;32.30;;
76807;SDS011;65758;45.458;11.062;2023-02-01T08:20:25;56.40;;;33.50;;
76807;SDS011;65758;45.458;11.062;2023-02-01T08:27:06;54.30;;;30.50;;
76807;SDS011;65758;45.458;11.062;2023-02-01T08:33:27;55.90;;;30.10;;
76807;SDS011;65758;45.458;11.062;2023-02-01T08:35:53;50.70;;;29.30;;
76807;SDS011;65758;45.458;11.062;2023-02-01T08:42:40;60.30;;;34.00;;
76807;SDS011;65758;45.458;11.062;2023-02-01T08:45:21;51.70;;;29.90;;
76807;SDS011;65758;45.458;11.062;2023-02-01T08:47:51;54.00;;;31.00;;
76807;SDS011;65758;45.458;11.062;2023-02-01T08:50:19;51.00;;;29.10;;
76807;SDS011;65758;45.458;11.062;2023-02-01T08:52:47;49.10;;;28.50;;
76807;SDS011;65758;45.458;11.062;2023-02-01T08:59:28;56.10;;;31.90;;
76807;SDS011;65758;45.458;11.062;2023-02-01T09:01:55;57.70;;;31.70;;
76807;SDS011;65758;45.458;11.062;2023-02-01T09:04:22;60.80;;;33.20;;
76807;SDS011;65758;45.458;11.062;2023-02-01T09:06:49;54.60;;;31.20;;
76807;SDS011;65758;45.458;11.062;2023-02-01T09:11:42;48.30;;;29.20;;
76807;SDS011;65758;45.458;11.062;2023-02-01T09:14:09;53.20;;;31.20;;
76807;SDS011;65758;45.458;11.062;2023-02-01T09:16:35;55.60;;;30.60;;
76807;SDS011;65758;45.458;11.062;2023-02-01T09:19:02;54.10;;;31.40;;
76807;SDS011;65758;45.458;11.062;2023-02-01T09:21:49;54.40;;;32.10;;
76807;SDS011;65758;45.458;11.062;2023-02-01T09:24:15;55.70;;;30.80;;
76807;SDS011;65758;45.458;11.062;2023-02-01T09:29:10;51.60;;;30.10;;
76807;SDS011;65758;45.458;11.062;2023-02-01T09:34:07;51.60;;;29.00;;
76807;SDS011;65758;45.458;11.062;2023-02-01T09:36:34;59.50;;;31.40;;
76807;SDS011;65758;45.458;11.062;2023-02-01T09:39:01;57.70;;;33.30;;
76807;SDS011;65758;45.458;11.062;2023-02-01T09:46:55;58.40;;;32.70;;
76807;SDS011;65758;45.458;11.062;2023-02-01T09:49:24;63.30;;;34.30;;
76807;SDS011;65758;45.458;11.062;2023-02-01T09:54:25;57.40;;;31.90;;
76807;SDS011;65758;45.458;11.062;2023-02-01T10:01:57;57.20;;;31.90;;
76807;SDS011;65758;45.458;11.062;2023-02-01T10:11:04;67.10;;;34.00;;
76807;SDS011;65758;45.458;11.062;2023-02-01T10:14:07;59.70;;;32.30;;
76807;SDS011;65758;45.458;11.062;2023-02-01T10:16:51;73.00;;;37.70;;
76807;SDS011;65758;45.458;11.062;2023-02-01T10:22:29;66.70;;;37.20;;
76807;SDS011;65758;45.458;11.062;2023-02-01T10:25:56;69.20;;;36.40;;
76807;SDS011;65758;45.458;11.062;2023-02-01T10:28:36;76.30;;;37.90;;
76807;SDS011;65758;45.458;11.062;2023-02-01T10:31:05;73.10;;;38.80;;
76807;SDS011;65758;45.458;11.062;2023-02-01T10:33:39;73.30;;;39.40;;
76807;SDS011;65758;45.458;11.062;2023-02-01T10:36:31;75.50;;;40.90;;
76807;SDS011;65758;45.458;11.062;2023-02-01T10:43:22;71.20;;;37.60;;
76807;SDS011;65758;45.458;11.062;2023-02-01T10:50:25;74.60;;;38.90;;
76807;SDS011;65758;45.458;11.062;2023-02-01T10:53:16;74.40;;;40.30;;
76807;SDS011;65758;45.458;11.062;2023-02-01T11:00:14;73.70;;;42.00;;
76807;SDS011;65758;45.458;11.062;2023-02-01T11:02:46;76.50;;;42.70;;
76807;SDS011;65758;45.458;11.062;2023-02-01T11:05:16;80.70;;;45.10;;
76807;SDS011;65758;45.458;11.062;2023-02-01T11:12:00;72.30;;;41.70;;
76807;SDS011;65758;45.458;11.062;2023-02-01T11:18:54;72.20;;;37.90;;
76807;SDS011;65758;45.458;11.062;2023-02-01T11:21:22;77.40;;;40.80;;
76807;SDS011;65758;45.458;11.062;2023-02-01T11:23:49;84.60;;;42.80;;
76807;SDS011;65758;45.458;11.062;2023-02-01T11:30:37;72.90;;;36.00;;
76807;SDS011;65758;45.458;11.062;2023-02-01T11:33:09;81.60;;;41.20;;
76807;SDS011;65758;45.458;11.062;2023-02-01T11:35:41;73.30;;;36.70;;
76807;SDS011;65758;45.458;11.062;2023-02-01T11:38:20;73.90;;;38.20;;
76807;SDS011;65758;45.458;11.062;2023-02-01T11:40:51;81.70;;;39.60;;
76807;SDS011;65758;45.458;11.062;2023-02-01T11:47:44;88.80;;;36.90;;
76807;SDS011;65758;45.458;11.062;2023-02-01T11:59:56;78.30;;;40.70;;
76807;SDS011;65758;45.458;11.062;2023-02-01T12:03:22;67.50;;;37.60;;
76807;SDS011;65758;45.458;11.062;2023-02-01T12:05:50;78.60;;;42.40;;
76807;SDS011;65758;45.458;11.062;2023-02-01T12:08:30;76.30;;;39.40;;
76807;SDS011;65758;45.458;11.062;2023-02-01T12:16:50;76.50;;;39.30;;
76807;SDS011;65758;45.458;11.062;2023-02-01T12:36:46;63.90;;;37.60;;
76807;SDS011;65758;45.458;11.062;2023-02-01T12:43:55;67.80;;;37.50;;
76807;SDS011;65758;45.458;11.062;2023-02-01T12:46:26;74.80;;;41.10;;
76807;SDS011;65758;45.458;11.062;2023-02-01T12:53:25;73.80;;;39.60;;
76807;SDS011;65758;45.458;11.062;2023-02-01T13:04:59;69.90;;;40.00;;
76807;SDS011;65758;45.458;11.062;2023-02-01T13:07:39;67.30;;;37.20;;
76807;SDS011;65758;45.458;11.062;2023-02-01T13:10:15;73.80;;;40.20;;
76807;SDS011;65758;45.458;11.062;2023-02-01T13:13:08;72.20;;;40.50;;
76807;SDS011;65758;45.458;11.062;2023-02-01T13:16:14;73.30;;;40.50;;
76807;SDS011;65758;45.458;11.062;2023-02-01T13:18:47;77.20;;;41.20;;
76807;SDS011;65758;45.458;11.062;2023-02-01T13:21:25;71.80;;;39.90;;
76807;SDS011;65758;45.458;11.062;2023-02-01T13:23:55;73.10;;;42.00;;
76807;SDS011;65758;45.458;11.062;2023-02-01T13:37:14;74.90;;;41.20;;
76807;SDS011;65758;45.458;11.062;2023-02-01T13:42:57;71.20;;;40.50;;
76807;SDS011;65758;45.458;11.062;2023-02-01T13:45:29;70.80;;;40.30;;
76807;SDS011;65758;45.458;11.062;2023-02-01T13:47:59;75.00;;;43.80;;
76807;SDS011;65758;45.458;11.062;2023-02-01T13:50:36;76.40;;;41.10;;
76807;SDS011;65758;45.458;11.062;2023-02-01T13:55:54;74.20;;;44.50;;
76807;SDS011;65758;45.458;11.062;2023-02-01T13:58:34;73.80;;;42.10;;
76807;SDS011;65758;45.458;11.062;2023-02-01T14:13:35;75.00;;;40.70;;
76807;SDS011;65758;45.458;11.062;2023-02-01T14:16:12;75.30;;;41.20;;
76807;SDS011;65758;45.458;11.062;2023-02-01T14:25:34;74.90;;;41.80;;
76807;SDS011;65758;45.458;11.062;2023-02-01T14:28:01;74.40;;;41.90;;
76807;SDS011;65758;45.458;11.062;2023-02-01T14:49:00;70.80;;;37.90;;
76807;SDS011;65758;45.458;11.062;2023-02-01T14:51:27;67.20;;;35.70;;
76807;SDS011;65758;45.458;11.062;2023-02-01T15:00:50;82.70;;;43.60;;
76807;SDS011;65758;45.458;11.062;2023-02-01T15:05:55;78.80;;;44.90;;
76807;SDS011;65758;45.458;11.062;2023-02-01T15:08:25;76.50;;;41.60;;
76807;SDS011;65758;45.458;11.062;2023-02-01T15:15:18;78.70;;;42.10;;
76807;SDS011;65758;45.458;11.062;2023-02-01T15:17:52;71.80;;;40.40;;
76807;SDS011;65758;45.458;11.062;2023-02-01T15:20:25;70.70;;;40.00;;
76807;SDS011;65758;45.458;11.062;2023-02-01T15:22:56;73.40;;;40.00;;
76807;SDS011;65758;45.458;11.062;2023-02-01T15:28:02;75.60;;;41.60;;
76807;SDS011;65758;45.458;11.062;2023-02-01T15:34:56;72.70;;;42.40;;
76807;SDS011;65758;45.458;11.062;2023-02-01T15:41:37;74.10;;;41.50;;
76807;SDS011;65758;45.458;11.062;2023-02-01T15:44:10;73.30;;;40.90;;
76807;SDS011;65758;45.458;11.062;2023-02-01T15:46:49;72.70;;;41.20;;
76807;SDS011;65758;45.458;11.062;2023-02-01T15:49:18;75.80;;;43.50;;
76807;SDS011;65758;45.458;11.062;2023-02-01T15:52:03;80.20;;;44.30;;
76807;SDS011;65758;45.458;11.062;2023-02-01T15:54:42;82.80;;;45.90;;
76807;SDS011;65758;45.458;11.062;2023-02-01T15:57:12;78.80;;;44.60;;
76807;SDS011;65758;45.458;11.062;2023-02-01T15:59:47;81.70;;;48.50;;
76807;SDS011;65758;45.458;11.062;2023-02-01T16:02:25;87.80;;;47.80;;
76807;SDS011;65758;45.458;11.062;2023-02-01T16:05:31;82.60;;;50.50;;
76807;SDS011;65758;45.458;11.062;2023-02-01T16:08:13;85.00;;;48.00;;
76807;SDS011;65758;45.458;11.062;2023-02-01T16:10:43;80.40;;;45.60;;
76807;SDS011;65758;45.458;11.062;2023-02-01T16:13:12;79.00;;;44.30;;
76807;SDS011;65758;45.458;11.062;2023-02-01T16:15:40;82.90;;;46.60;;
76807;SDS011;65758;45.458;11.062;2023-02-01T16:18:07;89.20;;;47.40;;
76807;SDS011;65758;45.458;11.062;2023-02-01T16:20:36;84.30;;;48.80;;
76807;SDS011;65758;45.458;11.062;2023-02-01T16:23:05;84.00;;;46.40;;
76807;SDS011;65758;45.458;11.062;2023-02-01T16:25:33;92.90;;;55.90;;
76807;SDS011;65758;45.458;11.062;2023-02-01T16:28:01;89.00;;;50.60;;
76807;SDS011;65758;45.458;11.062;2023-02-01T16:30:28;83.90;;;47.30;;
76807;SDS011;65758;45.458;11.062;2023-02-01T16:32:55;83.80;;;46.00;;
76807;SDS011;65758;45.458;11.062;2023-02-01T16:35:25;79.80;;;45.60;;
76807;SDS011;65758;45.458;11.062;2023-02-01T16:37:52;74.50;;;43.00;;
76807;SDS011;65758;45.458;11.062;2023-02-01T16:40:20;91.00;;;49.90;;
76807;SDS011;65758;45.458;11.062;2023-02-01T16:42:51;83.40;;;45.40;;
76807;SDS011;65758;45.458;11.062;2023-02-01T16:45:21;75.20;;;41.40;;
76807;SDS011;65758;45.458;11.062;2023-02-01T16:52:01;105.10;;;60.00;;
76807;SDS011;65758;45.458;11.062;2023-02-01T16:54:28;98.20;;;54.60;;
76807;SDS011;65758;45.458;11.062;2023-02-01T16:59:21;102.00;;;57.20;;
76807;SDS011;65758;45.458;11.062;2023-02-01T17:04:15;97.90;;;54.50;;
76807;SDS011;65758;45.458;11.062;2023-02-01T17:10:56;101.70;;;53.30;;
76807;SDS011;65758;45.458;11.062;2023-02-01T17:13:23;77.50;;;44.00;;
76807;SDS011;65758;45.458;11.062;2023-02-01T17:16:03;92.60;;;50.40;;
76807;SDS011;65758;45.458;11.062;2023-02-01T17:18:35;246.90;;;110.00;;
76807;SDS011;65758;45.458;11.062;2023-02-01T17:21:02;223.60;;;105.00;;
76807;SDS011;65758;45.458;11.062;2023-02-01T17:23:31;393.70;;;184.10;;
76807;SDS011;65758;45.458;11.062;2023-02-01T17:30:05;314.70;;;138.10;;
76807;SDS011;65758;45.458;11.062;2023-02-01T17:32:33;404.30;;;174.00;;
76807;SDS011;65758;45.458;11.062;2023-02-01T17:42:20;314.80;;;122.10;;
76807;SDS011;65758;45.458;11.062;2023-02-01T17:44:47;338.80;;;158.30;;
76807;SDS011;65758;45.458;11.062;2023-02-01T17:47:15;104.70;;;61.80;;
76807;SDS011;65758;45.458;11.062;2023-02-01T17:52:13;72.90;;;41.10;;
76807;SDS011;65758;45.458;11.062;2023-02-01T17:54:42;74.60;;;41.70;;
76807;SDS011;65758;45.458;11.062;2023-02-01T18:01:23;68.60;;;37.50;;
76807;SDS011;65758;45.458;11.062;2023-02-01T18:03:50;64.40;;;36.50;;
76807;SDS011;65758;45.458;11.062;2023-02-01T18:06:18;71.70;;;38.00;;
76807;SDS011;65758;45.458;11.062;2023-02-01T18:13:08;75.70;;;39.60;;
76807;SDS011;65758;45.458;11.062;2023-02-01T18:19:57;83.80;;;45.90;;
76807;SDS011;65758;45.458;11.062;2023-02-01T18:22:24;78.50;;;40.90;;
76807;SDS011;65758;45.458;11.062;2023-02-01T18:24:51;69.60;;;40.00;;
76807;SDS011;65758;45.458;11.062;2023-02-01T18:31:40;66.70;;;36.10;;
76807;SDS011;65758;45.458;11.062;2023-02-01T18:34:11;80.70;;;44.20;;
76807;SDS011;65758;45.458;11.062;2023-02-01T18:36:47;88.30;;;48.50;;
76807;SDS011;65758;45.458;11.062;2023-02-01T18:39:15;106.90;;;59.70;;
76807;SDS011;65758;45.458;11.062;2023-02-01T18:41:45;72.20;;;38.40;;
76807;SDS011;65758;45.458;11.062;2023-02-01T18:44:15;96.80;;;63.90;;
76807;SDS011;65758;45.458;11.062;2023-02-01T18:46:42;66.10;;;37.90;;
76807;SDS011;65758;45.458;11.062;2023-02-01T18:53:17;70.50;;;36.20;;
76807;SDS011;65758;45.458;11.062;2023-02-01T19:00:06;62.90;;;35.10;;
76807;SDS011;65758;45.458;11.062;2023-02-01T19:06:48;58.20;;;32.40;;
76807;SDS011;65758;45.458;11.062;2023-02-01T19:09:16;61.40;;;32.80;;
76807;SDS011;65758;45.458;11.062;2023-02-01T19:14:11;63.20;;;33.30;;
76807;SDS011;65758;45.458;11.062;2023-02-01T19:25:24;58.10;;;31.50;;
76807;SDS011;65758;45.458;11.062;2023-02-01T19:27:52;63.80;;;35.40;;
76807;SDS011;65758;45.458;11.062;2023-02-01T19:30:20;92.40;;;47.90;;
76807;SDS011;65758;45.458;11.062;2023-02-01T19:32:47;60.50;;;34.00;;
76807;SDS011;65758;45.458;11.062;2023-02-01T19:35:16;62.20;;;36.50;;
76807;SDS011;65758;45.458;11.062;2023-02-01T19:37:45;53.30;;;28.60;;
76807;SDS011;65758;45.458;11.062;2023-02-01T19:40:14;52.50;;;30.00;;
76807;SDS011;65758;45.458;11.062;2023-02-01T19:42:42;58.70;;;32.90;;
76807;SDS011;65758;45.458;11.062;2023-02-01T19:45:11;62.40;;;35.10;;
76807;SDS011;65758;45.458;11.062;2023-02-01T19:47:38;59.90;;;34.00;;
76807;SDS011;65758;45.458;11.062;2023-02-01T19:50:06;62.90;;;35.50;;
76807;SDS011;65758;45.458;11.062;2023-02-01T19:52:34;63.50;;;35.50;;
76807;SDS011;65758;45.458;11.062;2023-02-01T19:55:02;57.40;;;34.00;;
76807;SDS011;65758;45.458;11.062;2023-02-01T19:57:30;52.90;;;31.40;;
76807;SDS011;65758;45.458;11.062;2023-02-01T19:59:57;58.70;;;33.00;;
76807;SDS011;65758;45.458;11.062;2023-02-01T20:02:24;61.40;;;34.10;;
76807;SDS011;65758;45.458;11.062;2023-02-01T20:04:54;59.20;;;30.70;;
76807;SDS011;65758;45.458;11.062;2023-02-01T20:07:21;57.40;;;32.80;;
76807;SDS011;65758;45.458;11.062;2023-02-01T20:09:48;48.80;;;27.40;;
76807;SDS011;65758;45.458;11.062;2023-02-01T20:19:02;45.60;;;25.80;;
76807;SDS011;65758;45.458;11.062;2023-02-01T20:21:29;60.10;;;31.10;;
76807;SDS011;65758;45.458;11.062;2023-02-01T20:23:55;74.50;;;37.40;;
76807;SDS011;65758;45.458;11.062;2023-02-01T20:28:50;56.70;;;29.10;;
76807;SDS011;65758;45.458;11.062;2023-02-01T20:33:44;48.80;;;27.80;;
76807;SDS011;65758;45.458;11.062;2023-02-01T20:36:11;48.80;;;28.00;;
76807;SDS011;65758;45.458;11.062;2023-02-01T20:41:05;50.20;;;26.40;;
76807;SDS011;65758;45.458;11.062;2023-02-01T20:43:33;132.60;;;58.10;;
76807;SDS011;65758;45.458;11.062;2023-02-01T20:50:28;55.70;;;27.50;;
76807;SDS011;65758;45.458;11.062;2023-02-01T20:52:54;50.20;;;27.10;;
76807;SDS011;65758;45.458;11.062;2023-02-01T20:55:21;45.10;;;25.80;;
76807;SDS011;65758;45.458;11.062;2023-02-01T20:57:51;52.80;;;28.30;;